Time;durP1;ratioP1;P1;durP2;ratioP2;P2;SDS_P1;SDS_P2;PMS_P1;PMS_P2;Temp;Humidity;BMP_temperature;BMP_pressure;BME280_temperature;BME280_humidity;BME280_pressure;Samples;Min_cycle;Max_cycle;Signal;HPM_P1;HPM_P2
2022/12/28 00:02:00;;;;;;;3.08;2.10;;;;;;;13.70;48.79;94128.44;4951796;28;20063;-91
2022/12/28 00:04:25;;;;;;;2.63;2.00;;;;;;;13.68;48.94;94128.91;4954991;28;20448;-88
2022/12/28 00:06:51;;;;;;;3.53;2.13;;;;;;;13.69;48.54;94138.56;4972740;28;20038;-89
2022/12/28 00:09:17;;;;;;;4.00;1.88;;;;;;;13.70;48.17;94139.31;4971037;28;20045;-90
2022/12/28 00:11:42;;;;;;;3.47;2.25;;;;;;;13.68;48.88;94131.63;4955994;28;20035;-89
2022/12/28 00:14:08;;;;;;;3.10;1.70;;;;;;;13.67;48.89;94129.34;4938366;28;20047;-88
2022/12/28 00:16:35;;;;;;;3.25;2.00;;;;;;;13.67;48.95;94121.97;4940113;28;20090;-90
2022/12/28 00:19:02;;;;;;;2.85;1.90;;;;;;;13.67;48.85;94126.66;4956151;28;20134;-88
2022/12/28 00:21:28;;;;;;;2.40;1.80;;;;;;;13.68;48.79;94131.63;4971609;28;20518;-87
2022/12/28 00:23:55;;;;;;;3.65;1.98;;;;;;;13.65;49.14;94123.63;4955043;28;20046;-86
2022/12/28 00:26:20;;;;;;;2.60;1.77;;;;;;;13.66;48.73;94122.41;4939462;28;20043;-90
2022/12/28 00:28:46;;;;;;;3.58;1.98;;;;;;;13.66;48.57;94119.72;4951425;29;20050;-89
2022/12/28 00:31:12;;;;;;;2.70;1.77;;;;;;;13.67;48.99;94121.22;4935684;28;20042;-89
2022/12/28 00:33:37;;;;;;;2.30;1.83;;;;;;;13.66;48.63;94115.03;4981304;28;20065;-86
2022/12/28 00:36:03;;;;;;;3.17;2.13;;;;;;;13.69;48.41;94116.81;4971690;28;20046;-87
2022/12/28 00:38:30;;;;;;;4.20;1.73;;;;;;;13.69;48.67;94107.91;4971272;28;20133;-86
2022/12/28 00:40:56;;;;;;;2.83;1.88;;;;;;;13.69;48.32;94099.75;4956655;28;20054;-90
2022/12/28 00:43:21;;;;;;;3.30;1.88;;;;;;;13.66;48.72;94098.72;4954403;28;20043;-86
2022/12/28 00:45:47;;;;;;;3.08;2.08;;;;;;;13.68;48.63;94106.41;4955317;28;20031;-89
2022/12/28 00:48:12;;;;;;;2.42;2.13;;;;;;;13.71;48.47;94114.41;4971104;28;20058;-90
2022/12/28 00:50:39;;;;;;;1.70;1.58;;;;;;;13.69;48.87;94105.94;4955400;28;20500;-86
2022/12/28 00:53:04;;;;;;;2.70;1.80;;;;;;;13.67;48.26;94104.91;4967545;28;20039;-88
2022/12/28 00:55:30;;;;;;;3.30;1.95;;;;;;;13.66;48.45;94101.44;4955278;28;20235;-90
2022/12/28 00:57:58;;;;;;;2.45;1.80;;;;;;;13.66;48.76;94097.97;4954603;28;20310;-87
2022/12/28 01:00:23;;;;;;;4.03;2.30;;;;;;;13.67;48.84;94105.66;4954573;28;20642;-91
2022/12/28 01:02:49;;;;;;;2.67;1.80;;;;;;;13.66;48.76;94111.56;4954951;28;20042;-89
2022/12/28 01:05:14;;;;;;;2.60;2.17;;;;;;;13.65;48.49;94104.63;4954489;28;20420;-89
2022/12/28 01:07:39;;;;;;;3.72;2.20;;;;;;;13.64;48.56;94092.28;4939237;28;20101;-89
2022/12/28 01:10:05;;;;;;;3.35;2.03;;;;;;;13.62;48.87;94097.41;4954504;28;20039;-86
2022/12/28 01:12:30;;;;;;;2.10;1.90;;;;;;;13.62;48.46;94095.44;4970923;28;20062;-90
2022/12/28 01:14:56;;;;;;;3.28;2.00;;;;;;;13.66;48.44;94101.44;4970220;28;20035;-90
2022/12/28 01:17:21;;;;;;;3.63;2.13;;;;;;;13.65;48.67;94099.19;4954492;28;21501;-88
2022/12/28 01:19:48;;;;;;;3.03;1.95;;;;;;;13.64;48.56;94100.44;4955507;28;20046;-88
2022/12/28 01:22:13;;;;;;;3.55;2.17;;;;;;;13.65;48.21;94105.38;4953973;28;20093;-90
2022/12/28 01:24:40;;;;;;;2.65;2.08;;;;;;;13.63;48.42;94104.34;4970418;28;20043;-92
2022/12/28 01:27:05;;;;;;;2.78;1.92;;;;;;;13.63;48.66;94093.50;4954242;28;20512;-90
2022/12/28 01:29:31;;;;;;;2.45;2.13;;;;;;;13.61;48.39;94087.75;4950805;29;20091;-90
2022/12/28 01:31:56;;;;;;;3.05;2.08;;;;;;;13.65;48.85;94091.03;4967920;28;20039;-87
2022/12/28 01:34:22;;;;;;;4.40;2.10;;;;;;;13.65;48.46;94091.03;4966873;28;20844;-89
2022/12/28 01:36:47;;;;;;;3.50;2.13;;;;;;;13.64;48.64;94084.13;4938211;28;20046;-88
2022/12/28 01:39:13;;;;;;;2.15;1.63;;;;;;;13.64;48.33;94076.69;4953877;28;20043;-88
2022/12/28 01:41:39;;;;;;;2.72;1.83;;;;;;;13.65;48.27;94069.31;4954689;28;20109;-89
2022/12/28 01:44:05;;;;;;;2.80;2.10;;;;;;;13.63;48.70;94069.78;4969543;28;20129;-88
2022/12/28 01:46:40;;;;;;;2.63;1.63;;;;;;;13.62;48.56;94076.44;4971589;28;20038;-89
2022/12/28 01:49:10;;;;;;;3.10;2.20;;;;;;;13.64;48.18;94073.25;4971358;28;20606;-87
2022/12/28 01:51:51;;;;;;;3.05;1.70;;;;;;;13.60;48.51;94072.69;4951314;29;20051;-89
2022/12/28 01:54:17;;;;;;;4.03;2.35;;;;;;;13.63;48.38;94077.19;4964794;28;20540;-89
2022/12/28 01:56:42;;;;;;;2.63;2.03;;;;;;;13.64;48.71;94062.38;4938379;28;20137;-88
2022/12/28 01:59:09;;;;;;;1.90;1.45;;;;;;;13.59;48.60;94063.78;4953134;28;20043;-89
2022/12/28 02:01:35;;;;;;;2.63;1.88;;;;;;;13.65;48.00;94061.16;4954822;28;20113;-88
2022/12/28 02:04:00;;;;;;;2.03;1.60;;;;;;;13.63;48.66;94050.03;4953646;28;20039;-89
2022/12/28 02:06:25;;;;;;;3.03;1.95;;;;;;;13.62;48.45;94056.66;4934028;28;20059;-90
2022/12/28 02:09:03;;;;;;;2.72;1.85;;;;;;;13.65;48.30;94053.75;4970436;28;20061;-87
2022/12/28 02:11:28;;;;;;;2.92;1.90;;;;;;;13.63;48.56;94050.78;4969434;28;20509;-88
2022/12/28 02:13:53;;;;;;;3.28;2.33;;;;;;;13.65;48.58;94047.56;4934118;29;20047;-86
2022/12/28 02:16:19;;;;;;;3.40;2.20;;;;;;;13.61;48.63;94038.88;4939046;28;20054;-88
2022/12/28 02:18:44;;;;;;;3.17;2.22;;;;;;;13.61;48.42;94023.31;4953997;28;20050;-86
2022/12/28 02:21:38;;;;;;;2.30;1.80;;;;;;;13.61;48.40;94023.31;4952898;28;20038;-88
2022/12/28 02:24:22;;;;;;;3.63;1.73;;;;;;;13.62;48.37;94027.53;4970191;28;20046;-90
2022/12/28 02:26:55;;;;;;;1.92;1.63;;;;;;;13.62;48.52;94037.66;4970133;28;20818;-89
2022/12/28 02:29:50;;;;;;;3.05;1.88;;;;;;;13.63;48.19;94034.47;4968769;28;20043;-86
2022/12/28 02:32:24;;;;;;;3.20;2.28;;;;;;;13.60;48.59;94035.41;4953196;28;20560;-89
2022/12/28 02:34:58;;;;;;;2.75;1.65;;;;;;;13.60;48.46;94040.06;4984263;28;20130;-89
2022/12/28 02:37:32;;;;;;;3.30;1.88;;;;;;;13.58;48.50;94035.09;4970055;28;20042;-88
2022/12/28 02:40:02;;;;;;;2.75;2.13;;;;;;;13.61;48.38;94030.72;4938427;28;20049;-90
2022/12/28 02:42:27;;;;;;;2.70;1.98;;;;;;;13.59;48.31;94035.84;4953473;28;20283;-90
2022/12/28 02:50:21;;;;;;;2.42;1.83;;;;;;;13.59;48.48;94020.31;4955301;28;20181;-85
2022/12/28 02:53:02;;;;;;;2.70;2.20;;;;;;;13.59;48.47;94019.56;4953765;28;20046;-86
2022/12/28 02:59:04;;;;;;;2.67;2.00;;;;;;;13.60;48.23;94002.81;4969782;28;19929;-89
2022/12/28 03:01:43;;;;;;;2.83;1.67;;;;;;;13.59;48.42;93997.81;4969421;28;20074;-87
2022/12/28 03:04:17;;;;;;;1.70;1.50;;;;;;;13.57;48.54;94000.25;4968748;28;20051;-85
2022/12/28 03:10:00;;;;;;;2.45;1.80;;;;;;;13.57;48.29;93986.69;4956244;28;20053;-86
2022/12/28 03:12:31;;;;;;;3.22;2.00;;;;;;;13.56;48.49;93982.47;4952139;28;20114;-86
2022/12/28 03:15:02;;;;;;;2.15;1.70;;;;;;;13.58;48.21;93977.31;4949447;28;20135;-87
2022/12/28 03:31:22;;;;;;;3.72;1.98;;;;;;;13.53;48.18;93962.41;4968063;28;20073;-88
2022/12/28 03:33:49;;;;;;;2.20;1.70;;;;;;;13.53;48.44;93953.50;4969260;28;20050;-88
2022/12/28 03:36:21;;;;;;;2.97;1.90;;;;;;;13.50;48.75;93952.47;4935420;28;20131;-89
2022/12/28 03:38:54;;;;;;;1.98;1.75;;;;;;;13.52;48.35;93957.44;4936454;28;20054;-90
2022/12/28 03:41:25;;;;;;;2.75;1.90;;;;;;;13.50;48.09;93954.44;4952151;28;20058;-90
2022/12/28 03:43:53;;;;;;;3.50;2.20;;;;;;;13.49;48.42;93955.66;4951866;28;20078;-89
2022/12/28 03:46:30;;;;;;;2.15;1.55;;;;;;;13.52;48.44;93952.00;4932644;28;20049;-90
2022/12/28 03:48:59;;;;;;;3.60;2.10;;;;;;;13.53;48.59;93940.69;4968307;28;20050;-85
2022/12/28 03:51:24;;;;;;;2.60;1.98;;;;;;;13.52;48.25;93944.59;4951294;28;20039;-90
2022/12/28 03:53:50;;;;;;;2.80;1.88;;;;;;;13.53;48.32;93948.06;4952801;28;20144;-90
2022/12/28 03:56:19;;;;;;;3.45;1.90;;;;;;;13.52;48.11;93941.91;4967626;28;20047;-90
2022/12/28 03:58:45;;;;;;;3.53;1.88;;;;;;;13.55;48.70;93938.25;4952106;28;20047;-89
2022/12/28 04:01:10;;;;;;;1.73;1.50;;;;;;;13.53;48.28;93927.09;4967936;28;20097;-89
2022/12/28 04:03:36;;;;;;;3.05;1.88;;;;;;;13.54;48.35;93920.44;4952410;28;20046;-89
2022/12/28 04:06:01;;;;;;;2.65;2.00;;;;;;;13.56;47.87;93917.28;4935529;28;20051;-89
2022/12/28 04:08:26;;;;;;;1.83;1.60;;;;;;;13.53;48.49;93918.94;4951797;28;20050;-88
2022/12/28 04:10:52;;;;;;;2.58;1.80;;;;;;;13.55;48.45;93913.06;4950132;28;20039;-87
2022/12/28 04:13:17;;;;;;;2.10;1.63;;;;;;;13.52;48.45;93916.69;4967819;28;20039;-90
2022/12/28 04:15:43;;;;;;;2.65;1.98;;;;;;;13.51;48.16;93915.19;4968285;28;20042;-89
2022/12/28 04:18:08;;;;;;;2.78;1.65;;;;;;;13.50;48.16;93919.13;4967688;28;20106;-89
2022/12/28 04:20:33;;;;;;;3.92;1.80;;;;;;;13.50;48.20;93922.59;4951487;28;20046;-89
2022/12/28 04:22:59;;;;;;;4.32;1.92;;;;;;;13.54;48.00;93920.44;4936476;28;20035;-89
2022/12/28 04:25:24;;;;;;;2.65;1.80;;;;;;;13.55;48.12;93913.06;4983828;28;20039;-88
2022/12/28 04:27:50;;;;;;;2.05;1.73;;;;;;;13.52;48.03;93917.44;4967651;28;20098;-89
2022/12/28 04:30:15;;;;;;;3.47;1.92;;;;;;;13.55;48.04;93919.22;4968953;28;20125;-87
2022/12/28 04:32:41;;;;;;;2.55;1.88;;;;;;;13.56;47.91;93925.41;4932739;29;20402;-88
2022/12/28 04:35:06;;;;;;;2.25;1.75;;;;;;;13.55;47.96;93916.53;4976411;28;20155;-87
2022/12/28 04:37:35;;;;;;;1.90;1.65;;;;;;;13.53;48.38;93927.09;4968212;28;20042;-89
2022/12/28 04:40:01;;;;;;;2.63;1.65;;;;;;;13.53;48.45;93907.34;4968199;28;20085;-88
2022/12/28 04:42:26;;;;;;;2.42;1.90;;;;;;;13.50;48.24;93913.69;4934926;28;20405;-88
2022/12/28 04:44:51;;;;;;;2.33;1.80;;;;;;;13.50;48.20;93913.69;4936715;28;20042;-85
2022/12/28 04:47:17;;;;;;;2.70;1.73;;;;;;;13.50;48.12;93909.00;4951289;28;20039;-88
2022/12/28 04:49:42;;;;;;;2.08;1.73;;;;;;;13.51;48.40;93899.66;4969575;28;20054;-90
2022/12/28 04:52:07;;;;;;;2.88;1.80;;;;;;;13.55;48.23;93888.59;4951732;28;20086;-89
2022/12/28 04:54:33;;;;;;;2.55;1.73;;;;;;;13.54;48.24;93898.72;4971782;28;20043;-85
2022/12/28 04:56:58;;;;;;;1.88;1.67;;;;;;;13.53;48.23;93901.91;4955048;28;20093;-90
2022/12/28 04:59:24;;;;;;;1.98;1.77;;;;;;;13.52;48.24;93894.97;4936457;28;20032;-88
2022/12/28 05:01:49;;;;;;;2.13;1.67;;;;;;;13.50;47.86;93891.97;4939344;28;20066;-88
2022/12/28 05:04:14;;;;;;;3.60;1.85;;;;;;;13.54;47.78;93897.97;4986749;28;20074;-87
2022/12/28 05:06:40;;;;;;;3.22;1.85;;;;;;;13.50;48.04;93898.16;4938312;28;20469;-89
2022/12/28 05:09:05;;;;;;;2.15;1.70;;;;;;;13.50;48.20;93884.56;4954633;28;20043;-88
2022/12/28 05:11:31;;;;;;;4.53;2.00;;;;;;;13.53;47.98;93882.88;4954395;28;20066;-89
2022/12/28 05:13:56;;;;;;;3.60;1.70;;;;;;;13.52;48.22;93884.84;4936497;28;20128;-90
2022/12/28 05:16:23;;;;;;;2.35;1.83;;;;;;;13.49;48.41;93880.34;4919571;28;20502;-86
2022/12/28 05:18:48;;;;;;;3.55;2.00;;;;;;;13.50;48.16;93881.84;4951358;28;20563;-88
2022/12/28 05:21:15;;;;;;;2.72;2.00;;;;;;;13.50;48.26;93879.13;4951814;28;20047;-89
2022/12/28 05:23:41;;;;;;;2.60;1.92;;;;;;;13.52;48.02;93887.56;4967376;28;20091;-90
2022/12/28 05:26:08;;;;;;;4.40;1.90;;;;;;;13.56;48.35;93873.81;4923487;28;20498;-85
2022/12/28 05:28:33;;;;;;;2.63;1.60;;;;;;;13.51;47.99;93864.34;4929017;29;20074;-85
2022/12/28 05:30:59;;;;;;;3.30;1.83;;;;;;;13.49;47.90;93874.91;4943387;29;20036;-90
2022/12/28 05:33:25;;;;;;;2.88;1.90;;;;;;;13.49;48.47;93872.22;4934740;28;20049;-89
2022/12/28 05:35:50;;;;;;;2.60;1.88;;;;;;;13.50;48.21;93867.53;4944793;28;20040;-90
2022/12/28 05:38:16;;;;;;;2.70;2.10;;;;;;;13.53;48.10;93861.16;4935163;28;20039;-88
2022/12/28 05:40:41;;;;;;;2.33;1.80;;;;;;;13.52;48.21;93863.13;4900115;29;20441;-88
2022/12/28 05:43:07;;;;;;;2.35;1.60;;;;;;;13.54;47.82;93860.69;4916015;28;20044;-89
2022/12/28 05:45:32;;;;;;;3.53;2.30;;;;;;;13.50;48.06;93849.25;4946241;28;20031;-88
2022/12/28 05:47:57;;;;;;;2.92;2.00;;;;;;;13.53;48.07;93839.44;4933489;29;20050;-90
2022/12/28 05:50:23;;;;;;;4.07;2.17;;;;;;;13.52;47.87;93844.13;4922751;28;20093;-88
2022/12/28 05:52:48;;;;;;;1.83;1.45;;;;;;;13.52;48.01;93837.94;4967175;28;20409;-89
2022/12/28 05:55:14;;;;;;;2.97;1.55;;;;;;;13.50;48.24;93838.41;4943398;28;20043;-88
2022/12/28 05:57:39;;;;;;;2.38;1.52;;;;;;;13.55;48.09;93839.72;4970384;28;20038;-89
2022/12/28 06:00:05;;;;;;;1.90;1.75;;;;;;;13.54;47.96;93833.53;4930961;28;20043;-89
2022/12/28 06:02:30;;;;;;;1.83;1.63;;;;;;;13.53;48.04;93836.72;4958616;28;20039;-89
2022/12/28 06:04:56;;;;;;;2.67;1.90;;;;;;;13.51;48.36;93831.00;4953855;28;20244;-86
2022/12/28 06:07:21;;;;;;;2.42;1.50;;;;;;;13.53;48.12;93834.00;4934433;28;20043;-87
2022/12/28 06:09:47;;;;;;;2.42;1.70;;;;;;;13.55;48.14;93831.56;4939538;28;20457;-88
2022/12/28 06:12:12;;;;;;;2.83;1.90;;;;;;;13.54;48.12;93825.38;4952904;28;20039;-88
2022/12/28 06:14:37;;;;;;;3.22;1.70;;;;;;;13.51;48.15;93818.16;4953937;28;20070;-89
2022/12/28 06:17:03;;;;;;;3.08;1.55;;;;;;;13.53;47.95;93823.88;4953815;28;20413;-86
2022/12/28 06:19:28;;;;;;;2.58;2.10;;;;;;;13.54;48.07;93830.06;4953308;28;20057;-89
2022/12/28 06:21:54;;;;;;;1.98;1.50;;;;;;;13.53;48.17;93834.00;4950814;28;20043;-87
2022/12/28 06:24:19;;;;;;;2.20;1.85;;;;;;;13.54;47.95;93836.25;4969420;28;20038;-88
2022/12/28 06:26:44;;;;;;;2.08;1.63;;;;;;;13.56;47.94;93841.22;4937519;28;20050;-86
2022/12/28 06:29:10;;;;;;;1.65;1.55;;;;;;;13.55;47.86;93837.75;4969123;28;20073;-89
2022/12/28 06:31:37;;;;;;;3.05;1.90;;;;;;;13.56;48.15;93835.78;4969286;28;20547;-89
2022/12/28 06:34:03;;;;;;;3.20;2.00;;;;;;;13.57;47.93;93829.88;4937015;28;20042;-86
2022/12/28 06:36:33;;;;;;;2.42;1.80;;;;;;;13.55;47.90;93828.84;4953263;28;20034;-90
2022/12/28 06:38:59;;;;;;;2.03;1.73;;;;;;;13.60;47.89;93825.47;4968970;28;20039;-86
2022/12/28 06:41:25;;;;;;;2.70;1.40;;;;;;;13.59;48.10;93824.00;4949238;28;20119;-86
2022/12/28 06:43:50;;;;;;;2.50;1.60;;;;;;;13.57;48.06;93826.41;4953381;28;20488;-89
2022/12/28 06:46:16;;;;;;;2.15;1.83;;;;;;;13.56;47.94;93814.81;4950209;28;20532;-87
2022/12/28 06:48:42;;;;;;;2.30;1.80;;;;;;;13.54;47.93;93819.97;4984258;28;20035;-86
2022/12/28 06:51:14;;;;;;;2.15;1.70;;;;;;;13.55;48.14;93826.13;4984326;28;20489;-85
2022/12/28 06:53:40;;;;;;;1.98;1.42;;;;;;;13.55;47.63;93818.75;4952757;28;20039;-87
2022/12/28 06:56:08;;;;;;;1.88;1.70;;;;;;;13.52;47.87;93824.34;4935586;28;20454;-86
2022/12/28 06:58:34;;;;;;;2.58;1.67;;;;;;;13.49;47.93;93826.03;4937520;28;20043;-89
2022/12/28 07:01:05;;;;;;;2.88;2.00;;;;;;;13.51;47.96;93825.56;4952952;28;20097;-89
2022/12/28 07:03:30;;;;;;;3.30;1.90;;;;;;;13.50;48.10;93824.06;4952494;28;20039;-90
2022/12/28 07:05:59;;;;;;;3.67;1.80;;;;;;;13.50;48.12;93830.25;4968258;28;20049;-87
2022/12/28 07:08:24;;;;;;;2.85;1.65;;;;;;;13.51;48.09;93831.75;4968711;28;20109;-85
2022/12/28 07:10:50;;;;;;;1.80;1.48;;;;;;;13.56;47.93;93839.25;4968099;28;20038;-89
2022/12/28 07:13:15;;;;;;;2.22;1.70;;;;;;;13.54;48.28;93830.81;4932289;28;20448;-85
2022/12/28 07:15:40;;;;;;;2.30;2.10;;;;;;;13.56;47.98;93820.25;4957651;28;20039;-88
2022/12/28 07:18:06;;;;;;;2.70;1.67;;;;;;;13.61;47.83;93803.28;4967859;28;20385;-85
2022/12/28 07:20:31;;;;;;;2.30;1.70;;;;;;;13.58;48.04;93798.78;4968319;28;20050;-89
2022/12/28 07:22:56;;;;;;;2.92;1.75;;;;;;;13.58;47.84;93803.47;4932928;29;20055;-86
2022/12/28 07:25:22;;;;;;;2.20;1.65;;;;;;;13.59;47.80;93799.53;4967229;28;20070;-85
2022/12/28 07:27:47;;;;;;;2.42;1.60;;;;;;;13.62;47.38;93801.31;4951898;28;20544;-86
2022/12/28 07:30:13;;;;;;;2.03;1.48;;;;;;;13.59;47.56;93811.16;4967351;28;20031;-88
2022/12/28 07:32:38;;;;;;;2.70;1.83;;;;;;;13.59;48.05;93807.69;4967864;28;20050;-85
2022/12/28 07:35:04;;;;;;;2.55;1.60;;;;;;;13.55;47.64;93812.56;4935688;28;20504;-86
2022/12/28 07:37:30;;;;;;;2.10;1.40;;;;;;;13.58;48.00;93817.06;4932558;28;20833;-90
2022/12/28 07:39:55;;;;;;;1.92;1.67;;;;;;;13.58;47.57;93823.25;4949481;28;20043;-88
2022/12/28 07:42:20;;;;;;;1.90;1.60;;;;;;;13.59;47.76;93822.03;4951405;28;20050;-85
2022/12/28 07:44:46;;;;;;;2.15;1.67;;;;;;;13.59;47.42;93830.16;4951854;28;20101;-86
2022/12/28 07:47:12;;;;;;;3.58;1.80;;;;;;;13.61;47.25;93830.44;4931727;28;20039;-86
2022/12/28 07:49:37;;;;;;;1.75;1.50;;;;;;;13.60;47.54;93828.19;4962136;28;20035;-88
2022/12/28 07:52:03;;;;;;;3.92;1.80;;;;;;;13.66;47.60;93829.03;4947786;28;20050;-87
2022/12/28 07:54:29;;;;;;;4.35;1.67;;;;;;;13.65;47.51;93817.41;4954260;28;20502;-90
2022/12/28 07:56:55;;;;;;;2.30;1.70;;;;;;;13.64;47.75;93813.19;4948888;29;20047;-88
2022/12/28 07:59:20;;;;;;;2.70;2.00;;;;;;;13.64;47.87;93817.91;4964003;28;20390;-89
2022/12/28 08:01:46;;;;;;;2.30;1.73;;;;;;;13.68;47.56;93818.44;4949032;28;20043;-85
2022/12/28 08:04:12;;;;;;;1.48;1.38;;;;;;;13.65;47.36;93808.50;4955719;28;20082;-88
2022/12/28 08:06:39;;;;;;;2.10;1.40;;;;;;;13.65;47.85;93827.53;4966598;28;20051;-85
2022/12/28 08:09:05;;;;;;;2.60;1.80;;;;;;;13.63;47.90;93832.69;4965967;28;20138;-89
2022/12/28 08:11:31;;;;;;;2.08;1.85;;;;;;;13.66;47.79;93835.22;4982165;28;20050;-87
2022/12/28 08:13:57;;;;;;;2.00;1.48;;;;;;;13.65;47.49;93822.84;4950466;28;20064;-88
2022/12/28 08:16:23;;;;;;;2.58;1.70;;;;;;;13.63;47.65;93828.03;4965660;28;20274;-88
2022/12/28 08:18:49;;;;;;;3.28;1.80;;;;;;;13.62;47.50;93834.66;4950511;28;20133;-88
2022/12/28 08:21:20;;;;;;;2.47;1.58;;;;;;;13.66;47.43;93829.78;4932983;28;20133;-87
2022/12/28 08:23:45;;;;;;;2.60;2.00;;;;;;;13.68;47.62;93832.03;4951352;28;20560;-88
2022/12/28 08:26:18;;;;;;;2.40;1.73;;;;;;;13.64;47.62;93829.50;4953330;28;20039;-88
2022/12/28 08:28:44;;;;;;;3.15;1.50;;;;;;;13.67;47.80;93827.81;4987639;28;20050;-87
2022/12/28 08:31:14;;;;;;;2.95;1.77;;;;;;;13.65;47.39;93831.00;4941766;28;20615;-86
2022/12/28 08:33:40;;;;;;;2.22;1.52;;;;;;;13.71;47.46;93831.84;4949314;28;20432;-88
2022/12/28 08:36:06;;;;;;;2.20;1.88;;;;;;;13.69;47.77;93828.09;4954926;28;20436;-90
2022/12/28 08:38:32;;;;;;;3.35;1.55;;;;;;;13.64;47.75;93832.22;4954913;28;20133;-87
2022/12/28 08:40:58;;;;;;;6.20;1.70;;;;;;;13.66;47.65;93823.59;4955619;28;20457;-88
2022/12/28 08:43:23;;;;;;;2.38;1.45;;;;;;;13.67;47.35;93820.41;4951974;28;20046;-89
2022/12/28 08:45:57;;;;;;;2.10;1.58;;;;;;;13.64;47.48;93829.50;4955365;28;20335;-87
2022/12/28 08:48:22;;;;;;;3.30;1.70;;;;;;;13.69;47.72;93837.00;4971341;28;20053;-90
2022/12/28 08:50:48;;;;;;;2.67;1.80;;;;;;;13.66;47.32;93837.16;4954302;28;20046;-89
2022/12/28 08:53:13;;;;;;;3.05;1.77;;;;;;;13.62;47.75;93842.81;4960929;28;20039;-89
2022/12/28 08:55:38;;;;;;;4.32;1.45;;;;;;;13.63;47.73;93849.75;4972816;28;20039;-87
2022/12/28 08:58:04;;;;;;;2.97;1.67;;;;;;;13.65;47.82;93849.25;4955323;28;20047;-89
2022/12/28 09:00:29;;;;;;;2.55;1.75;;;;;;;13.64;47.76;93843.06;4952448;28;20051;-90
2022/12/28 09:02:58;;;;;;;3.80;1.80;;;;;;;13.64;47.67;93851.22;4972283;28;20054;-86
2022/12/28 09:05:23;;;;;;;2.78;1.90;;;;;;;13.63;47.37;93862.59;4949747;28;20540;-86
2022/12/28 09:07:50;;;;;;;4.70;1.58;;;;;;;13.65;47.40;93852.72;4956506;28;20046;-87
2022/12/28 09:10:15;;;;;;;3.30;1.60;;;;;;;13.63;47.48;93862.59;4955325;28;20519;-87
2022/12/28 09:12:41;;;;;;;4.13;1.65;;;;;;;13.65;47.60;93860.88;4953519;28;20131;-88
2022/12/28 09:15:07;;;;;;;4.10;2.38;;;;;;;13.71;47.43;93850.09;4956382;28;20042;-86
2022/12/28 09:17:32;;;;;;;8.13;1.98;;;;;;;13.81;47.84;93848.06;4941500;28;20164;-87
2022/12/28 09:19:57;;;;;;;2.72;1.73;;;;;;;13.81;47.76;93850.75;4955882;28;20128;-86
2022/12/28 09:22:23;;;;;;;5.68;1.67;;;;;;;13.80;47.68;93860.88;4955975;28;20488;-85
2022/12/28 09:24:48;;;;;;;4.05;1.48;;;;;;;13.91;47.56;93846.72;4938160;28;20058;-90
2022/12/28 09:27:14;;;;;;;4.00;1.83;;;;;;;13.96;47.20;93838.66;4970138;28;20656;-88
2022/12/28 09:29:39;;;;;;;2.75;1.88;;;;;;;13.98;47.51;93851.78;4956107;28;20053;-87
2022/12/28 09:32:04;;;;;;;5.88;2.08;;;;;;;14.03;47.16;93845.69;4939489;28;20194;-85
2022/12/28 09:34:30;;;;;;;26.73;16.95;;;;;;;14.04;47.55;93841.75;4971656;28;20039;-86
2022/12/28 09:36:56;;;;;;;15.57;7.20;;;;;;;14.07;47.66;93843.53;4937930;28;20039;-86
2022/12/28 09:39:23;;;;;;;6.85;3.67;;;;;;;13.95;47.48;93836.41;4954018;28;20725;-89
2022/12/28 09:42:03;;;;;;;6.18;2.97;;;;;;;13.89;47.18;93817.28;4970310;28;20135;-86
2022/12/28 09:44:41;;;;;;;4.45;2.53;;;;;;;13.89;47.17;93806.41;4971820;28;20042;-86
2022/12/28 09:47:43;;;;;;;7.45;3.22;;;;;;;13.86;47.16;93801.91;4969534;28;20078;-86
2022/12/28 09:50:15;;;;;;;5.72;2.85;;;;;;;13.82;46.25;93804.09;4969516;28;20080;-88
2022/12/28 09:53:05;;;;;;;7.97;3.05;;;;;;;13.84;46.29;93807.09;4970991;28;20069;-87
2022/12/28 09:55:34;;;;;;;16.85;4.63;;;;;;;13.79;46.37;93812.44;4970039;28;20035;-86
2022/12/28 09:57:59;;;;;;;10.73;4.05;;;;;;;13.75;47.07;93822.75;4970215;28;20050;-91
2022/12/28 10:00:45;;;;;;;6.43;3.97;;;;;;;13.72;47.19;93816.28;4933760;28;20460;-86
2022/12/28 10:03:21;;;;;;;9.80;4.30;;;;;;;13.73;47.38;93812.34;4950013;28;20087;-87
2022/12/28 10:05:47;;;;;;;6.80;3.80;;;;;;;13.74;47.18;93805.69;4946945;28;20090;-86
2022/12/28 10:08:14;;;;;;;8.43;4.78;;;;;;;13.71;47.39;93806.63;4968943;28;20065;-90
2022/12/28 10:10:39;;;;;;;7.15;4.30;;;;;;;13.71;47.49;93806.63;4953910;28;20066;-88
2022/12/28 10:13:17;;;;;;;8.90;3.58;;;;;;;13.71;47.72;93799.22;4952142;28;20559;-86
2022/12/28 10:15:42;;;;;;;6.70;4.05;;;;;;;13.67;47.54;93800.63;4969929;28;20550;-89
2022/12/28 10:18:08;;;;;;;9.40;3.70;;;;;;;13.68;47.63;93799.41;4970547;28;20039;-86
2022/12/28 10:20:34;;;;;;;5.65;3.70;;;;;;;13.66;47.43;93791.00;4969881;28;20049;-87
2022/12/28 10:23:00;;;;;;;11.30;4.18;;;;;;;13.68;47.24;93791.28;4936905;28;20046;-87
2022/12/28 10:25:25;;;;;;;6.32;4.00;;;;;;;13.69;47.38;93785.38;4936832;28;20401;-88
2022/12/28 10:27:51;;;;;;;11.27;5.55;;;;;;;13.68;47.27;93775.72;4969156;28;20046;-89
2022/12/28 10:30:25;;;;;;;21.73;8.80;;;;;;;13.72;46.38;93768.13;4969329;28;20035;-90
2022/12/28 10:32:52;;;;;;;10.98;5.93;;;;;;;13.69;46.68;93763.63;4954491;28;20050;-86
2022/12/28 10:35:23;;;;;;;16.48;7.90;;;;;;;13.68;46.78;93762.13;4953205;28;20387;-91
2022/12/28 10:37:49;;;;;;;13.73;7.10;;;;;;;13.71;47.26;93752.31;4952912;28;20039;-90
2022/12/28 10:40:23;;;;;;;13.43;6.05;;;;;;;13.75;47.34;93752.09;4953190;28;20030;-89
2022/12/28 10:42:50;;;;;;;7.75;4.88;;;;;;;13.75;47.03;93746.69;4953653;28;20125;-86
2022/12/28 10:45:23;;;;;;;12.15;4.90;;;;;;;13.75;46.62;93754.81;4954139;28;20034;-89
2022/12/28 10:47:53;;;;;;;13.90;4.40;;;;;;;13.71;47.11;93744.16;4949464;28;20062;-86
2022/12/28 10:50:37;;;;;;;9.30;4.30;;;;;;;13.71;47.19;93746.88;4982746;28;20069;-86
2022/12/28 10:53:02;;;;;;;9.80;4.22;;;;;;;13.65;46.87;93744.06;4950973;28;20580;-86
2022/12/28 10:55:29;;;;;;;7.18;3.95;;;;;;;13.67;46.84;93735.44;4956756;28;20047;-92
2022/12/28 10:57:54;;;;;;;11.85;4.53;;;;;;;13.68;46.47;93742.38;4969102;28;20074;-85
2022/12/28 11:00:21;;;;;;;14.60;5.13;;;;;;;13.66;46.53;93742.09;4935858;28;20031;-89
2022/12/28 11:02:46;;;;;;;13.60;4.80;;;;;;;13.66;47.22;93729.25;4952309;28;20051;-86
2022/12/28 11:05:22;;;;;;;11.48;4.38;;;;;;;13.66;46.58;93726.53;4968600;28;20151;-88
2022/12/28 11:07:48;;;;;;;9.75;4.95;;;;;;;13.70;46.63;93718.94;4936677;28;20035;-87
2022/12/28 11:10:21;;;;;;;6.15;3.97;;;;;;;13.68;46.72;93712.50;4952651;28;20070;-87
2022/12/28 11:12:46;;;;;;;14.35;4.93;;;;;;;13.65;46.92;93716.16;4970083;28;20382;-90
2022/12/28 11:15:13;;;;;;;52.85;7.47;;;;;;;13.65;46.64;93722.31;4952008;28;20085;-88
2022/12/28 11:17:38;;;;;;;12.93;4.60;;;;;;;13.67;46.96;93721.84;4953112;28;20046;-91
2022/12/28 11:20:12;;;;;;;21.55;5.40;;;;;;;13.66;46.68;93715.69;4952201;28;20030;-87
2022/12/28 11:22:38;;;;;;;126.07;13.38;;;;;;;13.64;47.13;93701.81;4952939;28;20445;-87
2022/12/28 11:25:03;;;;;;;10.48;4.32;;;;;;;13.64;47.05;93696.38;4935919;28;20050;-88
2022/12/28 11:27:29;;;;;;;16.42;4.53;;;;;;;13.67;46.87;93691.97;4951841;28;20133;-88
2022/12/28 11:29:54;;;;;;;49.17;8.60;;;;;;;13.69;47.09;93686.81;4968618;28;20113;-91
2022/12/28 11:32:38;;;;;;;217.63;16.90;;;;;;;13.65;46.63;93680.84;4952777;28;20560;-89
2022/12/28 11:35:04;;;;;;;13.57;4.78;;;;;;;13.60;46.86;93668.69;4953103;28;20050;-86
2022/12/28 11:37:29;;;;;;;22.60;5.03;;;;;;;13.62;47.06;93668.22;4952253;28;20050;-92
2022/12/28 11:39:55;;;;;;;8.55;4.35;;;;;;;13.63;46.71;93672.44;4985197;28;20097;-89
2022/12/28 11:42:36;;;;;;;11.55;6.38;;;;;;;13.66;47.10;93671.47;4951923;28;20038;-87
2022/12/28 11:45:03;;;;;;;62.78;9.75;;;;;;;13.65;46.59;93664.53;4969241;28;20101;-89
2022/12/28 11:47:34;;;;;;;16.67;5.85;;;;;;;13.64;47.12;93663.06;4968212;28;20125;-86
2022/12/28 11:50:18;;;;;;;;;;;;;;;13.71;46.46;93657.97;4952795;28;20134;-86
2022/12/28 11:52:45;;;;;;;9.30;5.25;;;;;;;13.67;46.72;93651.22;4967314;28;19926;-86
2022/12/28 11:55:36;;;;;;;18.02;5.75;;;;;;;13.65;46.90;93638.13;4951024;28;20054;-88
2022/12/28 11:58:30;;;;;;;13.40;4.53;;;;;;;13.67;47.22;93634.94;4967840;28;20110;-87
2022/12/28 12:00:55;;;;;;;22.40;5.18;;;;;;;13.70;47.02;93645.59;4972862;28;20118;-86